Time;durP1;ratioP1;P1;durP2;ratioP2;P2;SDS_P1;SDS_P2;PMS_P1;PMS_P2;Temp;Humidity;BMP_temperature;BMP_pressure;BME280_temperature;BME280_humidity;BME280_pressure;Samples;Min_cycle;Max_cycle;Signal;HPM_P1;HPM_P2
2021/05/17 00:01:06;;;;;;;0.93;0.80;;;;;;;9.30;93.38;96789.47;5004850;28;20323;-71
2021/05/17 00:03:36;;;;;;;0.77;0.77;;;;;;;9.37;91.10;96787.72;4998638;28;20513;-71
2021/05/17 00:06:04;;;;;;;0.77;0.77;;;;;;;9.49;91.62;96786.22;5002885;28;20213;-70
2021/05/17 00:08:32;;;;;;;1.43;1.10;;;;;;;9.57;91.99;96790.59;4996216;28;20213;-71
2021/05/17 00:11:00;;;;;;;1.43;1.07;;;;;;;9.49;92.98;96782.78;5004510;28;20748;-71
2021/05/17 00:13:29;;;;;;;2.33;0.93;;;;;;;9.51;93.44;96786.84;5004242;28;20209;-71
2021/05/17 00:15:56;;;;;;;0.90;0.90;;;;;;;9.51;93.25;96786.06;5004353;28;20480;-72
2021/05/17 00:18:24;;;;;;;1.23;0.93;;;;;;;9.55;92.49;96784.66;4993914;28;20209;-71
2021/05/17 00:20:52;;;;;;;0.87;0.87;;;;;;;9.55;91.61;96792.59;5000336;28;20232;-70
2021/05/17 00:23:20;;;;;;;0.90;0.90;;;;;;;9.46;92.92;96799.00;4999818;28;20589;-71
2021/05/17 00:25:47;;;;;;;1.17;1.17;;;;;;;9.46;92.55;96804.28;4989935;28;20213;-71
2021/05/17 00:28:16;;;;;;;1.13;1.07;;;;;;;9.45;92.61;96803.47;4993309;28;20216;-71
2021/05/17 00:30:45;;;;;;;1.00;1.00;;;;;;;9.55;92.56;96806.63;5004646;28;20201;-71
2021/05/17 00:33:12;;;;;;;1.40;1.30;;;;;;;9.55;91.73;96801.34;5002882;28;20217;-68
2021/05/17 00:35:40;;;;;;;1.00;1.00;;;;;;;9.52;92.68;96798.28;5001868;28;20215;-71
2021/05/17 00:38:08;;;;;;;1.13;0.90;;;;;;;9.61;92.08;96805.06;5002116;28;20220;-72
2021/05/17 00:40:36;;;;;;;0.90;0.90;;;;;;;9.44;93.06;96799.19;5003590;28;20224;-71
2021/05/17 00:43:06;;;;;;;1.90;0.90;;;;;;;9.50;92.11;96793.16;4999877;28;20464;-72
2021/05/17 00:45:34;;;;;;;1.20;1.10;;;;;;;9.50;92.38;96790.50;5003493;28;20224;-71
2021/05/17 00:48:04;;;;;;;1.97;1.10;;;;;;;9.36;92.87;96794.03;4996957;28;20683;-71
2021/05/17 00:50:31;;;;;;;0.90;0.90;;;;;;;9.25;94.49;96798.75;5001829;28;20309;-71
2021/05/17 00:52:59;;;;;;;1.13;1.13;;;;;;;9.26;94.34;96803.03;5003656;28;20212;-71
2021/05/17 00:55:28;;;;;;;2.37;1.40;;;;;;;9.38;93.68;96807.88;5003698;28;20205;-71
2021/05/17 00:57:57;;;;;;;0.90;0.90;;;;;;;9.45;92.65;96802.63;5002456;28;20291;-70
2021/05/17 01:00:26;;;;;;;1.83;1.13;;;;;;;9.39;94.42;96799.75;4999381;28;20288;-73
2021/05/17 01:02:54;;;;;;;0.80;0.80;;;;;;;9.38;93.78;96799.94;5001174;28;20359;-70
2021/05/17 01:05:22;;;;;;;1.00;1.00;;;;;;;9.51;92.69;96797.44;4998730;28;20211;-73
2021/05/17 01:07:50;;;;;;;1.10;1.00;;;;;;;9.51;93.54;96794.78;5001539;28;20210;-70
2021/05/17 01:10:19;;;;;;;1.60;0.97;;;;;;;9.53;93.19;96799.91;5000077;28;20212;-71
2021/05/17 01:12:48;;;;;;;0.70;0.70;;;;;;;9.51;93.37;96801.91;5004416;28;20224;-72
2021/05/17 01:15:18;;;;;;;1.93;0.80;;;;;;;9.38;94.63;96800.75;5001247;28;20206;-72
2021/05/17 01:17:45;;;;;;;0.93;0.93;;;;;;;9.47;93.83;96800.63;5000868;28;20681;-71
2021/05/17 01:20:16;;;;;;;1.00;1.00;;;;;;;9.41;94.38;96803.00;4997660;28;20248;-69
2021/05/17 01:22:52;;;;;;;0.93;0.93;;;;;;;9.32;95.57;96805.97;5002118;28;20229;-70
2021/05/17 01:25:23;;;;;;;1.27;1.27;;;;;;;9.26;94.83;96810.16;4994187;28;20535;-71
2021/05/17 01:27:51;;;;;;;1.10;0.80;;;;;;;9.39;94.86;96812.97;4999329;28;20205;-73
2021/05/17 01:30:20;;;;;;;1.17;1.13;;;;;;;9.35;94.77;96806.41;5001022;28;20350;-70
2021/05/17 01:32:50;;;;;;;0.80;0.80;;;;;;;9.31;95.20;96807.78;4996621;28;20221;-71
2021/05/17 01:35:19;;;;;;;0.87;0.87;;;;;;;9.28;95.74;96805.50;5002450;28;20232;-71
2021/05/17 01:37:47;;;;;;;0.93;0.80;;;;;;;9.27;95.77;96802.03;5003836;28;20223;-71
2021/05/17 01:40:19;;;;;;;0.80;0.80;;;;;;;9.34;95.00;96811.91;4995742;28;20233;-70
2021/05/17 01:42:48;;;;;;;0.97;0.97;;;;;;;9.36;95.55;96804.59;5003259;28;20231;-69
2021/05/17 01:45:16;;;;;;;0.80;0.80;;;;;;;9.34;94.61;96803.97;5003499;28;20208;-72
2021/05/17 01:47:44;;;;;;;0.90;0.90;;;;;;;9.30;95.72;96805.34;5003190;28;20216;-70
2021/05/17 01:50:14;;;;;;;0.93;0.93;;;;;;;9.31;95.49;96801.69;5002206;28;20201;-70
2021/05/17 01:52:41;;;;;;;0.80;0.80;;;;;;;9.23;96.74;96806.06;5003357;28;20613;-71
2021/05/17 01:55:11;;;;;;;1.20;1.20;;;;;;;9.14;96.94;96798.44;4993848;28;20604;-70
2021/05/17 01:57:38;;;;;;;0.80;0.73;;;;;;;9.21;96.76;96801.97;5003629;28;20315;-71
2021/05/17 02:00:09;;;;;;;1.00;0.90;;;;;;;9.04;98.27;96811.94;5002685;28;20655;-70
2021/05/17 02:02:36;;;;;;;1.23;1.00;;;;;;;8.93;99.11;96810.56;5002225;28;20220;-71
2021/05/17 02:05:05;;;;;;;1.03;0.70;;;;;;;8.87;99.42;96816.56;4997614;28;20678;-70
2021/05/17 02:07:35;;;;;;;0.90;0.90;;;;;;;8.88;99.78;96819.00;5002250;28;20673;-71
2021/05/17 02:10:04;;;;;;;0.90;0.90;;;;;;;8.80;99.62;96814.66;4999315;28;20406;-72
2021/05/17 02:12:33;;;;;;;1.17;1.10;;;;;;;8.88;98.98;96820.84;4998232;28;20221;-71
2021/05/17 02:15:00;;;;;;;0.83;0.83;;;;;;;8.88;98.64;96821.66;4999105;28;20208;-73
2021/05/17 02:17:29;;;;;;;1.30;0.90;;;;;;;8.80;99.11;96819.09;4995868;28;20211;-70
2021/05/17 02:19:58;;;;;;;0.67;0.67;;;;;;;8.82;98.98;96823.22;5002197;28;20220;-72
2021/05/17 02:22:26;;;;;;;1.97;0.87;;;;;;;8.98;95.99;96818.75;5002580;28;20229;-69
2021/05/17 02:24:54;;;;;;;1.03;0.93;;;;;;;8.98;94.69;96821.38;5002773;28;20213;-71
2021/05/17 02:27:22;;;;;;;0.90;0.90;;;;;;;9.10;94.17;96821.75;5003562;28;20220;-70
2021/05/17 02:29:49;;;;;;;0.70;0.70;;;;;;;9.10;94.92;96817.31;4999781;28;20227;-71
2021/05/17 02:32:20;;;;;;;0.83;0.83;;;;;;;9.05;94.70;96824.13;5001896;28;20246;-70
2021/05/17 02:34:50;;;;;;;0.90;0.90;;;;;;;9.19;93.34;96822.50;4997114;28;20244;-71
2021/05/17 02:37:18;;;;;;;0.70;0.70;;;;;;;9.21;92.14;96821.28;4999347;28;20204;-71
2021/05/17 02:39:46;;;;;;;1.20;1.17;;;;;;;9.18;92.96;96824.28;5002444;28;20608;-71
2021/05/17 02:42:17;;;;;;;0.97;0.73;;;;;;;9.17;92.87;96827.94;5003033;28;20225;-70
2021/05/17 02:44:45;;;;;;;0.90;0.90;;;;;;;9.18;93.15;96824.28;4999983;28;20223;-70
2021/05/17 02:47:12;;;;;;;1.67;0.90;;;;;;;9.23;92.98;96821.91;5000061;28;20211;-69
2021/05/17 02:49:40;;;;;;;1.37;1.10;;;;;;;9.21;92.92;96826.56;5003821;28;20205;-70
2021/05/17 02:52:10;;;;;;;1.00;0.90;;;;;;;9.16;93.79;96826.31;5001677;28;20229;-70
2021/05/17 02:54:39;;;;;;;0.80;0.80;;;;;;;9.16;93.66;96831.59;5000899;28;20205;-70
2021/05/17 02:57:09;;;;;;;1.00;0.90;;;;;;;9.29;93.95;96832.78;5001951;28;20691;-70
2021/05/17 03:00:11;;;;;;;0.70;0.70;;;;;;;9.30;93.50;96837.88;4999024;28;20205;-70
2021/05/17 03:02:53;;;;;;;1.83;1.03;;;;;;;9.30;95.37;96848.44;5000066;28;20742;-71
2021/05/17 03:05:21;;;;;;;1.63;1.10;;;;;;;9.36;94.25;96849.53;5000645;28;20502;-70
2021/05/17 03:07:54;;;;;;;0.80;0.80;;;;;;;9.30;95.05;96843.16;4998797;28;20205;-72
2021/05/17 03:10:24;;;;;;;0.80;0.80;;;;;;;9.27;95.91;96854.91;4998879;28;20697;-68
2021/05/17 03:12:53;;;;;;;0.77;0.77;;;;;;;9.29;96.36;96846.00;5001806;28;20313;-70
2021/05/17 03:15:20;;;;;;;1.57;1.03;;;;;;;9.36;96.14;96839.78;5002545;28;20201;-71
2021/05/17 03:17:48;;;;;;;3.40;1.23;;;;;;;9.33;97.10;96842.78;5000086;28;20516;-70
2021/05/17 03:20:16;;;;;;;0.97;0.90;;;;;;;9.32;96.79;96846.44;5001766;28;20209;-72
2021/05/17 03:22:44;;;;;;;1.23;0.90;;;;;;;9.21;98.42;96844.25;5002746;28;20364;-71
2021/05/17 03:25:13;;;;;;;2.53;0.90;;;;;;;9.16;99.10;96847.44;5000316;28;20863;-72
2021/05/17 03:27:40;;;;;;;2.43;0.90;;;;;;;9.23;98.46;96848.34;5002036;28;20205;-69
2021/05/17 03:30:09;;;;;;;2.77;1.07;;;;;;;9.19;99.29;96847.06;5001551;28;20514;-70
2021/05/17 03:32:36;;;;;;;1.30;1.20;;;;;;;9.13;99.48;96850.47;5001011;28;20233;-70
2021/05/17 03:35:05;;;;;;;1.40;0.97;;;;;;;9.17;99.04;96846.44;5000388;28;20585;-70
2021/05/17 03:37:32;;;;;;;1.70;1.10;;;;;;;9.14;99.69;96844.16;5001317;28;20209;-68
2021/05/17 03:40:00;;;;;;;2.40;1.40;;;;;;;9.11;99.55;96836.59;5000883;28;20207;-70
2021/05/17 03:42:28;;;;;;;1.30;1.20;;;;;;;9.11;99.28;96849.81;5001986;28;20240;-68
2021/05/17 03:44:56;;;;;;;1.20;1.13;;;;;;;9.10;99.69;96841.09;5004198;28;20213;-69
2021/05/17 03:47:23;;;;;;;1.40;1.30;;;;;;;9.16;98.32;96846.66;5003285;28;20207;-70
2021/05/17 03:49:51;;;;;;;0.70;0.70;;;;;;;9.12;97.93;96847.00;5004299;28;20201;-71
2021/05/17 03:52:18;;;;;;;1.20;1.03;;;;;;;9.10;99.30;96851.66;5003155;28;20453;-69
2021/05/17 03:54:46;;;;;;;3.30;1.30;;;;;;;9.03;99.97;96863.13;5005034;28;20216;-68
2021/05/17 03:57:14;;;;;;;1.13;1.10;;;;;;;9.15;98.45;96866.16;5005300;28;20232;-70
2021/05/17 03:59:45;;;;;;;1.27;1.13;;;;;;;9.19;96.10;96870.06;5004450;28;20709;-68
2021/05/17 04:02:16;;;;;;;4.07;1.23;;;;;;;9.17;95.38;96870.22;5004114;28;20229;-69
2021/05/17 04:04:51;;;;;;;1.87;1.00;;;;;;;9.14;94.64;96877.72;5005139;28;20208;-70
2021/05/17 04:07:28;;;;;;;4.30;1.50;;;;;;;9.26;92.49;96877.06;5004525;28;21406;-71
2021/05/17 04:15:55;;;;;;;3.17;1.50;;;;;;;9.43;90.81;96894.56;4941413;28;20207;-73
2021/05/17 04:18:23;;;;;;;1.33;0.97;;;;;;;9.43;91.54;96894.56;4944980;28;20214;-75
2021/05/17 04:20:52;;;;;;;2.20;1.03;;;;;;;9.43;90.97;96892.75;4966275;28;20240;-75
2021/05/17 04:23:21;;;;;;;2.87;1.10;;;;;;;9.35;90.85;96901.59;5003498;28;20205;-75
2021/05/17 04:25:49;;;;;;;1.90;1.80;;;;;;;9.41;90.40;96898.22;4998686;28;20201;-74
2021/05/17 04:28:16;;;;;;;2.40;1.57;;;;;;;9.37;90.95;96902.22;5003435;28;20216;-76
2021/05/17 04:30:44;;;;;;;2.30;1.10;;;;;;;9.49;91.14;96904.44;5004045;28;20209;-76
2021/05/17 04:33:13;;;;;;;1.40;1.30;;;;;;;9.54;90.07;96910.78;5001127;28;20677;-75
2021/05/17 04:35:40;;;;;;;1.17;1.03;;;;;;;9.54;90.86;96913.44;5004528;28;20236;-75
2021/05/17 04:38:08;;;;;;;2.87;1.23;;;;;;;9.56;90.93;96921.19;5002458;28;20242;-76
2021/05/17 04:40:35;;;;;;;2.40;1.33;;;;;;;9.60;90.45;96916.34;5003981;28;20209;-74
2021/05/17 04:43:03;;;;;;;2.10;1.43;;;;;;;9.53;91.20;96924.22;5004346;28;20213;-75
2021/05/17 04:45:30;;;;;;;1.53;0.77;;;;;;;9.63;89.87;96923.91;4999042;28;20212;-68
2021/05/17 04:47:58;;;;;;;4.00;1.30;;;;;;;9.73;89.29;96921.81;5003758;28;20197;-68
2021/05/17 04:50:26;;;;;;;1.30;1.00;;;;;;;9.90;88.75;96933.00;5003726;28;20204;-69
2021/05/17 04:52:54;;;;;;;3.43;1.30;;;;;;;9.95;88.24;96929.78;5003673;28;20231;-69
2021/05/17 04:55:21;;;;;;;0.83;0.83;;;;;;;9.92;87.25;96927.50;5004160;28;20205;-76
2021/05/17 04:57:49;;;;;;;1.67;1.20;;;;;;;9.94;87.02;96925.50;5000346;28;20225;-76
2021/05/17 05:00:17;;;;;;;1.27;0.90;;;;;;;9.84;87.38;96926.63;5003695;28;20296;-75
2021/05/17 05:02:45;;;;;;;1.20;0.93;;;;;;;9.87;87.42;96928.09;5004113;28;20247;-75
2021/05/17 05:05:13;;;;;;;1.90;1.43;;;;;;;9.84;87.77;96933.72;5003447;28;20212;-75
2021/05/17 05:07:41;;;;;;;3.03;1.00;;;;;;;9.89;86.53;96931.38;5004102;28;20208;-76
2021/05/17 05:10:10;;;;;;;1.00;0.67;;;;;;;9.85;87.08;96943.34;5000853;28;20232;-77
2021/05/17 05:12:38;;;;;;;0.90;0.90;;;;;;;9.93;86.65;96942.38;5000603;28;20233;-74
2021/05/17 05:15:06;;;;;;;1.40;1.17;;;;;;;9.81;86.26;96936.75;4997409;28;20307;-73
2021/05/17 05:17:34;;;;;;;2.20;1.50;;;;;;;9.48;91.65;96947.75;5002275;28;20205;-75
2021/05/17 05:20:01;;;;;;;2.03;1.30;;;;;;;9.22;99.08;96941.88;5004156;28;20209;-75
2021/05/17 05:22:29;;;;;;;1.87;1.30;;;;;;;9.00;100.00;96942.78;5003560;28;20236;-75
2021/05/17 05:24:57;;;;;;;2.23;1.40;;;;;;;8.78;100.00;96939.97;5003271;28;20471;-77
2021/05/17 05:27:28;;;;;;;2.63;1.30;;;;;;;8.81;100.00;96942.28;5003554;28;20204;-77
2021/05/17 05:32:50;;;;;;;1.53;1.43;;;;;;;8.75;100.00;96945.63;4997541;28;20232;-75
2021/05/17 05:35:18;;;;;;;1.30;1.20;;;;;;;8.72;100.00;96946.81;5004437;28;20618;-76
2021/05/17 05:37:46;;;;;;;1.90;1.07;;;;;;;8.71;100.00;96945.16;5000803;28;20648;-75
2021/05/17 05:40:15;;;;;;;1.60;1.30;;;;;;;8.93;100.00;96947.94;5003576;28;20205;-74
2021/05/17 05:42:42;;;;;;;1.73;1.23;;;;;;;8.89;100.00;96947.47;5000674;28;20701;-77
2021/05/17 05:45:11;;;;;;;1.07;1.07;;;;;;;8.85;100.00;96950.66;5004399;28;20209;-74
2021/05/17 05:47:38;;;;;;;1.57;1.47;;;;;;;8.88;100.00;96950.31;4997602;28;20209;-77
2021/05/17 05:50:07;;;;;;;1.33;1.23;;;;;;;8.81;100.00;96945.75;5003209;28;20215;-76
2021/05/17 05:52:34;;;;;;;1.63;1.50;;;;;;;8.79;100.00;96952.19;5002963;28;20489;-76
2021/05/17 05:55:04;;;;;;;1.57;1.10;;;;;;;8.89;100.00;96949.31;5003787;28;20695;-76
2021/05/17 05:57:38;;;;;;;1.23;1.13;;;;;;;8.95;100.00;96952.06;5003665;28;20209;-76
2021/05/17 06:00:07;;;;;;;1.77;1.00;;;;;;;9.03;100.00;96955.63;5002687;28;20551;-74
2021/05/17 06:02:36;;;;;;;0.90;0.90;;;;;;;8.97;100.00;96958.00;5002518;28;20773;-77
2021/05/17 06:05:04;;;;;;;1.60;1.07;;;;;;;9.04;100.00;96970.47;5003643;28;20216;-75
2021/05/17 06:07:32;;;;;;;1.13;0.83;;;;;;;8.94;100.00;96968.94;5003335;28;20212;-75
2021/05/17 06:10:03;;;;;;;0.80;0.80;;;;;;;9.04;100.00;96959.91;5003861;28;20208;-77
2021/05/17 06:12:31;;;;;;;1.70;1.00;;;;;;;9.06;100.00;96960.56;5003279;28;20231;-78
2021/05/17 06:15:02;;;;;;;2.70;1.23;;;;;;;9.17;100.00;96975.97;5002193;28;20320;-75
2021/05/17 06:17:30;;;;;;;0.93;0.93;;;;;;;9.12;100.00;96960.66;5003207;28;20213;-75
2021/05/17 06:19:58;;;;;;;1.00;1.00;;;;;;;9.23;100.00;96969.16;5003902;28;20237;-74
2021/05/17 06:22:26;;;;;;;0.60;0.60;;;;;;;9.30;100.00;96967.41;5003234;28;20613;-75
2021/05/17 06:24:57;;;;;;;1.20;1.10;;;;;;;9.46;100.00;96974.34;4998674;28;20206;-75
2021/05/17 06:27:24;;;;;;;0.93;0.93;;;;;;;9.47;100.00;96976.00;4999901;28;20205;-75
2021/05/17 06:29:54;;;;;;;1.17;0.90;;;;;;;9.70;98.41;96978.53;5001412;28;20805;-75
2021/05/17 06:32:23;;;;;;;1.50;0.70;;;;;;;9.69;98.12;96981.41;5001169;28;20723;-73
2021/05/17 06:34:51;;;;;;;1.93;0.87;;;;;;;9.66;95.17;96974.63;5002810;28;20240;-76
2021/05/17 06:37:19;;;;;;;3.03;1.00;;;;;;;9.91;95.13;96981.44;5002763;28;20412;-75
2021/05/17 06:39:46;;;;;;;1.10;0.97;;;;;;;9.82;92.61;96986.84;5000481;28;20877;-73
2021/05/17 06:42:14;;;;;;;0.83;0.83;;;;;;;9.68;93.24;96985.03;4998733;28;20232;-76
2021/05/17 06:44:42;;;;;;;0.80;0.80;;;;;;;9.49;95.67;96995.16;5001185;28;20216;-75
2021/05/17 06:47:10;;;;;;;1.30;1.00;;;;;;;9.50;97.53;96991.50;5001371;28;20237;-75
2021/05/17 06:49:40;;;;;;;0.80;0.80;;;;;;;9.31;98.31;96998.13;4999357;28;20216;-74
2021/05/17 06:52:12;;;;;;;0.63;0.60;;;;;;;9.24;99.71;96991.94;4999836;28;20244;-75
2021/05/17 06:54:43;;;;;;;1.33;0.90;;;;;;;9.11;100.00;97006.59;4995879;28;20585;-76
2021/05/17 06:57:17;;;;;;;1.50;0.87;;;;;;;8.97;100.00;97000.28;4998118;28;20251;-75
2021/05/17 06:59:47;;;;;;;1.80;0.97;;;;;;;8.93;100.00;97004.28;5000381;28;20332;-76
2021/05/17 07:02:18;;;;;;;1.00;0.90;;;;;;;8.96;100.00;97006.56;4995856;28;20232;-75
2021/05/17 07:04:48;;;;;;;1.73;0.90;;;;;;;9.01;100.00;97008.66;4994783;28;20204;-76
2021/05/17 07:07:22;;;;;;;1.90;0.80;;;;;;;9.11;100.00;97008.41;5001564;28;20208;-76
2021/05/17 07:12:44;;;;;;;0.93;0.90;;;;;;;9.37;100.00;97015.13;5000844;28;20227;-74
2021/05/17 07:15:12;;;;;;;0.93;0.93;;;;;;;9.30;100.00;97014.19;5000995;28;20209;-75
2021/05/17 07:17:43;;;;;;;2.10;1.10;;;;;;;9.27;100.00;97012.72;5000959;28;20217;-73
2021/05/17 07:20:14;;;;;;;1.70;1.07;;;;;;;9.31;100.00;97019.28;5004306;28;20212;-72
2021/05/17 07:25:32;;;;;;;1.23;0.93;;;;;;;9.34;99.12;97011.00;5001786;28;21550;-71
2021/05/17 07:28:03;;;;;;;0.77;0.77;;;;;;;9.38;100.00;97009.63;5005022;28;20212;-73
2021/05/17 07:30:33;;;;;;;1.17;1.07;;;;;;;9.36;100.00;97009.00;4997276;28;20214;-74
2021/05/17 07:33:01;;;;;;;2.70;0.80;;;;;;;9.05;100.00;97030.28;5003934;28;20204;-73
2021/05/17 07:35:29;;;;;;;0.90;0.90;;;;;;;8.66;100.00;97029.38;5004137;28;20201;-76
2021/05/17 07:37:56;;;;;;;0.70;0.70;;;;;;;8.50;100.00;97033.78;5005866;28;20597;-74
2021/05/17 07:40:24;;;;;;;2.83;0.77;;;;;;;8.44;100.00;97029.19;5004984;28;20212;-74
2021/05/17 07:42:51;;;;;;;0.60;0.60;;;;;;;8.51;100.00;97039.88;5006187;28;20247;-74
2021/05/17 07:45:27;;;;;;;1.00;1.00;;;;;;;8.52;100.00;97047.63;5005829;28;20223;-76
2021/05/17 07:47:55;;;;;;;1.10;0.83;;;;;;;8.63;100.00;97046.41;5006283;28;20209;-74
2021/05/17 07:50:23;;;;;;;1.03;0.93;;;;;;;8.76;100.00;97045.84;5006284;28;20200;-75
2021/05/17 07:52:51;;;;;;;2.00;0.83;;;;;;;8.97;100.00;97042.56;5004680;28;20229;-74
2021/05/17 07:55:21;;;;;;;2.07;1.10;;;;;;;9.15;100.00;97043.25;4997718;28;20581;-75
2021/05/17 07:57:48;;;;;;;1.17;0.87;;;;;;;9.05;100.00;97044.28;5002640;28;20215;-74
2021/05/17 08:00:16;;;;;;;1.50;0.60;;;;;;;9.18;100.00;97050.81;5003435;28;20208;-75
2021/05/17 08:02:44;;;;;;;0.80;0.80;;;;;;;9.41;100.00;97033.06;5004648;28;20240;-75
2021/05/17 08:05:11;;;;;;;0.87;0.87;;;;;;;9.73;100.00;97035.56;5004184;28;20209;-75
2021/05/17 08:07:39;;;;;;;0.93;0.93;;;;;;;10.01;99.94;97040.19;5005216;28;20300;-75
2021/05/17 08:10:10;;;;;;;0.83;0.83;;;;;;;10.16;96.72;97039.38;5003252;28;20208;-75
2021/05/17 08:12:38;;;;;;;0.77;0.77;;;;;;;10.30;98.33;97032.44;5004891;28;20747;-75
2021/05/17 08:15:07;;;;;;;0.77;0.70;;;;;;;10.41;95.77;97040.72;5005883;28;20201;-75
2021/05/17 08:17:35;;;;;;;1.00;0.90;;;;;;;10.58;94.75;97035.22;5004865;28;20209;-75
2021/05/17 08:20:04;;;;;;;0.83;0.83;;;;;;;10.69;92.24;97031.25;5005754;28;20801;-75
2021/05/17 08:22:34;;;;;;;0.80;0.80;;;;;;;10.73;91.13;97035.16;5004010;28;20232;-74
2021/05/17 08:25:03;;;;;;;1.77;0.87;;;;;;;10.61;86.44;97037.47;5005158;28;20392;-75
2021/05/17 08:27:31;;;;;;;1.53;1.33;;;;;;;10.48;85.46;97043.44;5004612;28;20256;-74
2021/05/17 08:29:59;;;;;;;2.20;0.80;;;;;;;10.41;85.05;97035.41;5004546;28;20454;-74
2021/05/17 08:32:26;;;;;;;1.33;0.93;;;;;;;10.65;80.77;97036.09;5005174;28;20577;-73
2021/05/17 08:34:54;;;;;;;5.50;1.67;;;;;;;10.84;82.71;97039.94;5005321;28;20208;-74
2021/05/17 08:37:21;;;;;;;1.87;0.90;;;;;;;11.06;79.00;97053.22;5000899;28;20684;-74
2021/05/17 08:39:48;;;;;;;0.70;0.70;;;;;;;11.33;78.81;97040.16;5004918;28;20213;-74
2021/05/17 08:42:32;;;;;;;0.77;0.77;;;;;;;11.74;76.75;97030.66;5004501;28;20229;-74
2021/05/17 08:45:00;;;;;;;1.47;1.30;;;;;;;11.69;73.90;97043.69;5000416;28;20885;-74
2021/05/17 08:47:28;;;;;;;0.60;0.60;;;;;;;11.63;73.48;97047.13;5002995;28;20213;-73
2021/05/17 08:49:55;;;;;;;1.13;0.63;;;;;;;11.60;74.13;97044.84;4998637;28;20216;-74
2021/05/17 08:52:24;;;;;;;1.40;0.77;;;;;;;11.55;75.56;97056.03;5004828;28;20224;-73
2021/05/17 08:54:52;;;;;;;1.73;0.80;;;;;;;11.31;76.62;97054.63;5004628;28;20239;-73
2021/05/17 08:57:19;;;;;;;0.80;0.60;;;;;;;11.17;77.22;97059.81;5004907;28;20215;-74
2021/05/17 08:59:48;;;;;;;1.17;1.17;;;;;;;11.37;77.92;97064.47;5004725;28;20220;-74
2021/05/17 09:02:15;;;;;;;1.30;0.63;;;;;;;11.36;80.19;97076.09;5003744;28;20233;-73
2021/05/17 09:05:07;;;;;;;0.60;0.60;;;;;;;10.85;81.11;97085.84;5004203;28;20503;-74
2021/05/17 09:07:35;;;;;;;0.83;0.57;;;;;;;10.46;87.66;97084.41;5002276;28;20629;-74
2021/05/17 09:10:13;;;;;;;0.60;0.60;;;;;;;10.37;93.78;97078.34;5003548;28;20215;-74
2021/05/17 09:12:58;;;;;;;0.50;0.50;;;;;;;10.08;97.51;97082.66;5000207;28;20236;-74
2021/05/17 09:15:31;;;;;;;0.57;0.57;;;;;;;9.65;100.00;97085.91;5001479;28;20206;-72
2021/05/17 09:18:00;;;;;;;0.60;0.60;;;;;;;9.39;100.00;97095.09;5002596;28;20197;-72
2021/05/17 09:20:40;;;;;;;2.60;0.73;;;;;;;9.08;100.00;97093.34;5003813;28;20220;-73
2021/05/17 09:23:10;;;;;;;1.23;0.97;;;;;;;8.88;100.00;97088.50;5002853;28;20224;-74
2021/05/17 09:25:39;;;;;;;2.10;1.00;;;;;;;9.03;100.00;97090.41;5003447;28;20220;-74
2021/05/17 09:28:08;;;;;;;1.83;1.73;;;;;;;9.03;100.00;97085.94;5002965;28;20212;-74
2021/05/17 09:30:46;;;;;;;2.90;1.90;;;;;;;9.19;100.00;97085.00;5003409;28;20209;-74
2021/05/17 09:33:14;;;;;;;1.47;1.37;;;;;;;9.72;100.00;97067.50;5004278;28;20295;-73
2021/05/17 09:35:43;;;;;;;1.67;1.57;;;;;;;10.21;100.00;97069.56;5004657;28;20219;-74
2021/05/17 09:38:19;;;;;;;1.77;0.90;;;;;;;10.42;100.00;97074.16;5003426;28;20205;-74
2021/05/17 09:40:47;;;;;;;1.13;0.90;;;;;;;10.57;100.00;97075.97;4997812;28;20593;-75
2021/05/17 09:43:16;;;;;;;0.90;0.90;;;;;;;10.64;96.82;97081.34;5003272;28;20225;-72
2021/05/17 09:45:47;;;;;;;1.77;1.00;;;;;;;10.96;97.09;97084.50;5003599;28;20690;-74
2021/05/17 09:48:16;;;;;;;1.13;1.00;;;;;;;10.76;89.74;97089.59;5003642;28;20600;-73
2021/05/17 09:50:58;;;;;;;2.00;1.03;;;;;;;11.06;87.22;97078.91;5002934;28;20975;-74
2021/05/17 09:53:27;;;;;;;0.80;0.80;;;;;;;11.22;88.26;97064.56;5003224;28;20652;-74
2021/05/17 09:55:55;;;;;;;3.10;0.97;;;;;;;11.60;88.34;97063.44;5004155;28;20232;-74
2021/05/17 09:58:27;;;;;;;1.30;0.90;;;;;;;11.62;82.00;97093.25;5002660;28;20287;-74
2021/05/17 10:01:07;;;;;;;0.90;0.90;;;;;;;11.70;77.70;97069.22;5003319;28;20232;-74
2021/05/17 10:03:37;;;;;;;1.23;0.70;;;;;;;11.68;75.88;97068.59;4999068;28;20236;-73
2021/05/17 10:06:05;;;;;;;0.77;0.77;;;;;;;11.78;76.24;97063.75;5000786;28;20557;-68
2021/05/17 10:08:32;;;;;;;1.60;0.80;;;;;;;12.09;74.29;97065.19;5001568;28;20577;-68
2021/05/17 10:11:00;;;;;;;0.97;0.93;;;;;;;12.13;73.08;97053.16;4997783;28;20229;-74
2021/05/17 10:13:33;;;;;;;0.90;0.63;;;;;;;12.71;75.10;97059.09;5003213;28;20216;-73
2021/05/17 10:16:02;;;;;;;1.60;1.07;;;;;;;12.77;69.06;97060.13;4991508;28;20670;-74
2021/05/17 10:18:31;;;;;;;1.00;1.00;;;;;;;12.37;69.01;97072.28;4994941;28;20293;-72
2021/05/17 10:20:59;;;;;;;0.77;0.70;;;;;;;12.27;68.29;97053.19;4999361;28;20237;-74
2021/05/17 10:23:27;;;;;;;1.17;0.67;;;;;;;12.37;67.45;97053.69;5000626;28;20383;-74
2021/05/17 10:26:06;;;;;;;1.17;0.70;;;;;;;12.53;65.26;97057.81;4994139;28;20697;-73
2021/05/17 10:28:35;;;;;;;0.60;0.60;;;;;;;12.70;64.65;97058.28;5001944;28;20696;-74
2021/05/17 10:31:09;;;;;;;2.03;0.97;;;;;;;13.39;62.04;97054.66;4998662;28;20320;-74
2021/05/17 10:33:38;;;;;;;1.27;0.90;;;;;;;13.83;61.93;97055.06;5000170;28;20203;-75
2021/05/17 10:36:07;;;;;;;0.67;0.57;;;;;;;13.89;61.32;97051.56;5000956;28;20589;-75
2021/05/17 10:38:42;;;;;;;0.63;0.60;;;;;;;13.72;61.44;97069.81;5000623;28;20241;-74
2021/05/17 10:41:31;;;;;;;1.07;0.70;;;;;;;13.43;62.91;97058.56;5001692;28;20239;-73
2021/05/17 10:44:10;;;;;;;0.80;0.80;;;;;;;13.32;61.60;97057.34;5001301;28;20213;-74
2021/05/17 10:46:40;;;;;;;2.50;1.00;;;;;;;13.52;62.33;97070.66;5000221;28;21640;-73
2021/05/17 10:49:31;;;;;;;1.00;0.57;;;;;;;13.36;62.99;97057.72;4994223;28;20205;-73
2021/05/17 10:52:24;;;;;;;1.17;0.70;;;;;;;14.12;59.92;97052.94;4998018;28;20601;-74
2021/05/17 10:55:06;;;;;;;0.67;0.40;;;;;;;14.18;59.09;97049.44;5001005;28;20304;-74
2021/05/17 10:57:37;;;;;;;1.13;1.03;;;;;;;14.26;58.37;97048.38;5002286;28;20589;-74
2021/05/17 11:00:22;;;;;;;0.90;0.90;;;;;;;14.88;59.09;97063.91;5001375;28;20205;-72
2021/05/17 11:03:07;;;;;;;1.77;0.80;;;;;;;15.60;56.04;97052.88;5000179;28;20235;-74
2021/05/17 11:05:38;;;;;;;0.50;0.50;;;;;;;15.43;53.92;97059.84;5002325;28;20219;-74
2021/05/17 11:08:07;;;;;;;0.50;0.50;;;;;;;16.10;53.96;97045.88;5001507;28;20673;-74
2021/05/17 11:10:37;;;;;;;0.87;0.43;;;;;;;15.14;49.16;97048.75;5002125;28;20633;-74
2021/05/17 11:13:14;;;;;;;0.37;0.37;;;;;;;14.99;52.02;97049.88;5002727;28;20728;-74
2021/05/17 11:15:47;;;;;;;0.97;0.47;;;;;;;14.15;53.62;97066.66;4998872;28;20235;-74
2021/05/17 11:18:33;;;;;;;1.23;0.63;;;;;;;14.01;55.92;97073.06;5000037;28;20209;-74
2021/05/17 11:21:04;;;;;;;0.73;0.73;;;;;;;13.55;56.06;97075.56;5000503;28;20298;-74
2021/05/17 11:23:51;;;;;;;1.17;0.50;;;;;;;13.44;57.78;97074.34;5000264;28;20278;-74
2021/05/17 11:26:21;;;;;;;0.80;0.80;;;;;;;13.88;56.62;97072.06;5003190;28;20209;-74
2021/05/17 11:29:06;;;;;;;0.70;0.57;;;;;;;13.95;56.20;97064.03;4999518;28;20201;-74
2021/05/17 11:31:46;;;;;;;0.50;0.50;;;;;;;13.93;56.27;97098.06;5000439;28;20314;-68
2021/05/17 11:34:19;;;;;;;0.50;0.50;;;;;;;14.08;53.98;97102.34;5001934;28;20709;-68
2021/05/17 11:36:50;;;;;;;1.60;0.50;;;;;;;14.50;53.40;97072.69;4999816;28;20372;-68
2021/05/17 11:39:20;;;;;;;0.97;0.33;;;;;;;14.72;51.60;97068.72;5002179;28;20208;-68
2021/05/17 11:41:49;;;;;;;1.20;1.10;;;;;;;15.27;51.92;97069.19;5000815;28;20231;-68
2021/05/17 11:44:21;;;;;;;0.30;0.30;;;;;;;14.97;51.67;97073.31;4998124;28;20243;-68
2021/05/17 11:46:54;;;;;;;1.73;0.67;;;;;;;15.18;52.16;97068.63;5000623;28;20221;-69
2021/05/17 11:49:22;;;;;;;0.47;0.30;;;;;;;15.40;49.69;97073.63;5000276;28;20211;-68
2021/05/17 11:51:52;;;;;;;0.63;0.50;;;;;;;14.76;52.65;97085.91;4996592;28;21280;-67
2021/05/17 11:54:20;;;;;;;1.80;0.70;;;;;;;14.42;52.89;97082.56;5000880;28;20321;-68
2021/05/17 11:56:49;;;;;;;0.50;0.50;;;;;;;14.43;50.38;97102.03;4999595;28;20209;-68
2021/05/17 11:59:19;;;;;;;0.40;0.23;;;;;;;13.96;51.36;97088.84;4999833;28;20217;-67
2021/05/17 12:01:47;;;;;;;0.30;0.30;;;;;;;13.61;52.38;97095.22;4999566;28;20241;-68
2021/05/17 12:04:21;;;;;;;1.23;1.13;;;;;;;13.19;54.29;97092.72;5001180;28;20228;-68